• Join FlightAware (Why Join?)
  • Login
  • US Flag 
12:47AM EDT


 

Airport Tracker/Info


-or-


 

Live Flight TrackerFlight Track Log ✈ CTL18 ✈ 22-May-2013 ✈ KPTK - KMBS

Flight Track Log - Related Links

Times and Time Zones

All times are in EDT time to prevent confusion due to time zone crossing. See the CTL18 flight status page for this flight to view local times or setup timezone preferences in your user account.

Time Position Orientation Groundspeed Altitude Reporting Facility
EDT Latitude Longitude Course Direction KTS MPH feet Rate Location/Type
06:59PM 42.6622 -83.4406 274° West 116 133 1,400  Level Cleveland Center
06:59PM 42.6636 -83.4689 274° West 112 129 2,000 960 Climbing Cleveland Center
07:00PM 42.6731 -83.5117 287° West 129 148 3,000 960 Climbing Cleveland Center
07:02PM 42.6988 -83.4641 54° Northeast  Level FlightAware Approximate
07:09PM 42.9385 -83.4090 321° Northwest  Level FlightAware Approximate
07:10PM 42.9659 -83.4391 321° Northwest  Level FlightAware Approximate
07:11PM 42.9933 -83.4693 321° Northwest  Level FlightAware Approximate
07:12PM 43.0207 -83.4995 321° Northwest  Level FlightAware Approximate
07:13PM 43.0481 -83.5297 321° Northwest  Level FlightAware Approximate
07:14PM 43.0754 -83.5600 321° Northwest  Level FlightAware Approximate
07:15PM 43.1028 -83.5902 321° Northwest  Level FlightAware Approximate
07:16PM 43.1301 -83.6206 321° Northwest  Level FlightAware Approximate
07:17PM 43.1575 -83.6509 321° Northwest  Level FlightAware Approximate
07:18PM 43.1848 -83.6813 321° Northwest  Level FlightAware Approximate
07:19PM 43.2122 -83.7116 321° Northwest  Level FlightAware Approximate
07:20PM 43.2386 -83.7434 318° Northwest  Level FlightAware Approximate
07:21PM 43.2649 -83.7755 318° Northwest  Level FlightAware Approximate
07:22PM 43.2912 -83.8076 318° Northwest  Level FlightAware Approximate
07:23PM 43.3175 -83.8398 318° Northwest  Level FlightAware Approximate
07:24PM 43.3438 -83.8719 318° Northwest  Level FlightAware Approximate
07:25PM 43.3703 -83.9036 324° Northwest  Level FlightAware Approximate
07:26PM 43.3988 -83.9321 324° Northwest  Level FlightAware Approximate
07:27PM 43.4273 -83.9605 324° Northwest  Level FlightAware Approximate
07:28PM 43.4557 -83.9890 324° Northwest  Level FlightAware Approximate
07:29PM 43.4842 -84.0175 324° Northwest  Level FlightAware Approximate